Tiempo atmosférico en la estación meteorológica de Nuñomoral, Cáceres (475 m.)



Fecha
DESCASC
Temp. máxima en grados centígrados (hora)
DESCASC
Temp. mínima en grados centígrados (hora)
DESCASC
Temp. media en grados centígrados
DESCASC
Racha de viento máxima en m/sg (hora)
DESCASC
Velocidad máxima media en intervalos de 10 minutos(hora)
DESCASC
Precipitaciones diarias en mm
DESCASC
Precipitaciones de 00:00 a 06:00 en mm
DESCASC
Precipitaciones de 06:00 a 12:00 en mm
DESCASC
Precipitaciones de 12:00 a 18:00 en mm
DESCASC
Precipitaciones de 18:00 a 24:00 en mm
DESCASC
16-01-2020 12.6 (19:10) 9.2 (23:59) 10.9 11.39 (21:30) 4.72 (19:10) 5.8 0.8 1.6 0 3.4
15-01-2020 9.4 (23:50) 7 (00:00) 8.2 8.33 (03:30) 3.89 (03:00) 16.4 1 8.8 2 4.6
14-01-2020 7 (23:59) -2.4 (02:20) 2.3 3.33 (23:59) 1.39 (23:59) 9.4 0 0 0 9.4
13-01-2020 10.9 (14:40) -3.4 (07:50) 3.7 5.83 (14:40) 3.89 (15:00) 0 0 0 0 0
12-01-2020 13.8 (16:20) -4.8 (-00:0) 4.5 4.17 (14:20) 2.78 (14:20) 0 0 0 0 0
11-01-2020 12.3 (16:40) -2.1 (-00:0) 5.1 5.28 (14:20) 3.61 (13:40) 0 0 0 0 0
10-01-2020 12.5 (16:00) 0.4 (00:00) 6.5 11.94 (04:50) 5.83 (04:40) 0 0 0 0 0
09-01-2020 16.8 (16:00) -1.4 (-00:0) 7.7 8.89 (14:10) 4.17 (14:00) 0 0 0 0 0
08-01-2020 16 (15:40) -3.5 (-00:0) 6.3 3.33 (13:50) 1.94 (17:00) 0.2 0 0.2 0 0
07-01-2020 16.3 (16:00) -2.6 (-00:0) 6.8 3.33 (16:50) 1.94 (16:50) 0 0 0 0 0
06-01-2020 14.4 (15:30) -3.8 (-00:0) 5.3 2.5 (15:40) 1.39 (18:00) 0.2 0 0.2 0 0
05-01-2020 13.6 (16:10) -3.4 (-00:0) 5.1 3.33 (17:10) 2.22 (17:10) 0 0 0 0 0
04-01-2020 11.8 (14:20) -0.9 (-00:0) 5.5 6.94 (15:00) 3.89 (15:40) 0 0 0 0 0
03-01-2020 13.6 (15:20) -0.5 (-00:0) 6.6 9.72 (15:50) 5.83 (15:40) 0 0 0 0 0
02-01-2020 13.2 (15:00) -3 (-00:0) 5.1 4.72 (15:30) 3.06 (16:00) 0.2 0 0.2 0 0
01-01-2020 15.1 (15:20) -3 (-00:0) 6.1 2.5 (17:30) 1.67 (17:30) 0 0 0 0 0
31-12-2019 14.6 (16:00) -2.9 (-00:0) 5.9 2.78 (17:10) 2.22 (17:30) 0.2 0 0.2 0 0
30-12-2019 15.5 (15:30) -2.5 (-00:0) 6.5 3.33 (17:50) 1.67 (17:40) 0.2 0 0.2 0 0
29-12-2019 16.9 (15:50) -1.8 (-00:0) 7.5 3.33 (17:30) 2.22 (17:40) 0 0 0 0 0
28-12-2019 16.5 (15:50) -1.2 (-00:0) 7.6 2.78 (17:30) 1.67 (17:20) 0.2 0 0.2 0 0
27-12-2019 14.8 (15:30) -0.9 (-00:0) 7 2.78 (17:00) 2.22 (17:00) 0 0 0 0 0
26-12-2019 15.7 (16:10) 2.8 (00:00) 9.2 4.44 (14:30) 3.06 (14:40) 0 0 0 0 0
25-12-2019 15.1 (15:40) 3.6 (00:00) 9.4 2.5 (13:40) 1.67 (15:00) 0.2 0 0.2 0 0
24-12-2019 16.5 (15:30) 2.2 (00:00) 9.4 2.22 (12:10) 1.39 (13:10) 0 0 0 0 0
23-12-2019 14.9 (15:50) 2.1 (00:00) 8.5 3.33 (15:10) 2.22 (15:00) 0 0 0 0 0
22-12-2019 16.4 (15:40) 7 (00:00) 11.7 18.06 (01:00) 7.78 (00:50) 0 0 0 0 0
21-12-2019 16.5 (15:30) 11.8 (00:00) 14.2 16.39 (15:50) 8.06 (23:59) 4.4 0.8 2.6 1 0

Gráficas

Temp. máximas Temp. mínimas Temp. medias Precipitaciones Rachas de viento máximas Velocidades máximas media en intervalos de 10 minutos

Datos horarios

Fecha y hora oficial Temperatura (ºC) Velocidad del viento (km/h) Dirección del viento Racha (km/h) Dirección de racha Precipitación (mm) Presión (hPa) Tendencia (hPa) Humedad (%)
2020-01-19 23:00:00 4.7 20 Este 54 Sudeste 0 -- -- 48
2020-01-19 22:00:00 4.7 22 Nordeste 53 Sudeste 0 -- -- 49
2020-01-19 21:00:00 5.3 16 Nordeste 50 Sudeste 0 -- -- 44
2020-01-19 20:00:00 6.3 14 Nordeste 48 Este 0 -- -- 42
2020-01-19 19:00:00 7.2 16 Nordeste 48 Nordeste 0 -- -- 41
2020-01-19 18:00:00 8.4 17 Nordeste 52 Este 0 -- -- 40
2020-01-19 17:00:00 9.9 18 Nordeste 46 Norte 0 -- -- 40
2020-01-19 16:00:00 10.6 17 Nordeste 63 Norte 0 -- -- 40
2020-01-19 15:00:00 10.9 21 Nordeste 54 Norte 0 -- -- 37
2020-01-19 14:00:00 10.6 20 Nordeste 57 Norte 0 -- -- 40
2020-01-19 13:00:00 10.4 18 Nordeste 66 Norte 0 -- -- 43
2020-01-19 12:00:00 9.7 22 Nordeste 63 Nordeste 0 -- -- 52
2020-01-19 11:00:00 9.6 16 Nordeste 42 Sudeste 0 -- -- 59
2020-01-19 10:00:00 9.4 11 Este 32 Nordeste 0 -- -- 61
2020-01-19 09:00:00 7.8 3 Sur 34 Sudoeste 0 -- -- 72
2020-01-19 08:00:00 7.5 19 Oeste 38 Oeste 0 -- -- 73
2020-01-19 07:00:00 7.5 14 Oeste 29 Oeste 0 -- -- 76
2020-01-19 06:00:00 8 13 Oeste 26 Noroeste 0 -- -- 76
2020-01-19 05:00:00 8.6 13 Oeste 29 Norte 0 -- -- 76
2020-01-19 04:00:00 8.4 7 Oeste 24 Noroeste 0 -- -- 80
2020-01-19 03:00:00 8.2 12 Oeste 28 Oeste 0 -- -- 83
2020-01-19 02:00:00 7.9 13 Oeste 22 Sudoeste 0.4 -- -- 84
2020-01-19 01:00:00 7.4 8 Oeste 19 Sudoeste 0 -- -- 87
2020-01-19 00:00:00 7.1 2 Este 13 Norte 0 -- -- 84
2020-01-18 23:00:00 8 7 Oeste 29 Oeste 0 -- -- 79
2020-01-18 22:00:00 8.8 10 Oeste 35 Oeste 0.6 -- -- 79
2020-01-18 21:00:00 9.6 11 Oeste 35 Sudoeste 1 -- -- 80
2020-01-18 20:00:00 10.1 6 Oeste 26 Noroeste 0 -- -- 82
2020-01-18 19:00:00 9.8 0 Calma 6 Este 0 -- -- 94
2020-01-18 18:00:00 10.4 3 Sudeste 8 Norte 0 -- -- 92
2020-01-18 17:00:00 10.7 4 Nordeste 12 Este 0 -- -- 90
2020-01-18 16:00:00 10.4 5 Este 13 Este 0 -- -- 93
2020-01-18 15:00:00 10.7 6 Este 10 Este 0 -- -- 93
2020-01-18 14:00:00 10.5 2 Sudeste 6 Norte 0 -- -- 94
2020-01-18 13:00:00 10 2 Norte 10 Norte 0.2 -- -- 93
2020-01-18 12:00:00 9.5 4 Norte 14 Sudoeste 0 -- -- 94
2020-01-18 11:00:00 9 4 Oeste 18 Noroeste 0.2 -- -- 95
2020-01-18 10:00:00 8.3 5 Oeste 14 Norte 0 -- -- 98
2020-01-18 09:00:00 7.2 3 Nordeste 8 Sur 0.6 -- -- 98
2020-01-18 08:00:00 7 2 Este 8 Sudeste 0.4 -- -- 98
2020-01-18 07:00:00 7 3 Nordeste 9 Nordeste 1.2 -- -- 98
2020-01-18 06:00:00 6.6 2 Este 5 Este 2.8 -- -- 98
2020-01-18 05:00:00 6.4 2 Oeste 5 Sudoeste 3.2 -- -- 98
2020-01-18 04:00:00 6.2 0 Calma 4 Este 0.8 -- -- 97
2020-01-18 03:00:00 6 3 Nordeste 8 Sudoeste 0 -- -- 96
2020-01-18 02:00:00 5.6 2 Sudeste 5 Este 0 -- -- 96
2020-01-18 01:00:00 5.5 0 Calma 5 Noroeste 0 -- -- 96
2020-01-18 00:00:00 5.5 0 Calma 5 Sur 0 -- -- 95
2020-01-17 23:00:00 5.7 0 Calma 4 Norte 0 -- -- 93
2020-01-17 22:00:00 6 2 Norte 5 Norte 0 -- -- 92
2020-01-17 21:00:00 6.5 3 Norte 5 Nordeste 0 -- -- 90
2020-01-17 20:00:00 6.6 3 Oeste 10 Oeste 0 -- -- 89
2020-01-17 19:00:00 7.2 2 Oeste 9 Sudoeste 0 -- -- 85
2020-01-17 18:00:00 9.4 5 Sudoeste 10 Oeste 0 -- -- 75
2020-01-17 17:00:00 13.4 4 Sudoeste 16 Oeste 0 -- -- 61
2020-01-17 16:00:00 14.2 10 Oeste 15 Oeste 0 -- -- 50
2020-01-17 15:00:00 14.1 5 Sudoeste 18 Noroeste 0 -- -- 53
2020-01-17 14:00:00 13.2 4 Sur 18 Noroeste 0 -- -- 59
2020-01-17 13:00:00 12.5 6 Noroeste 26 Norte 0.2 -- -- 64
2020-01-17 12:00:00 10.7 10 Oeste 22 Noroeste 0 -- -- 72
2020-01-17 11:00:00 8.7 3 Este 9 Este 0 -- -- 99
2020-01-17 10:00:00 7 2 Noroeste 7 Norte 0 -- -- 99
2020-01-17 09:00:00 6.4 0 Calma 5 Oeste 0.2 -- -- 99
2020-01-17 08:00:00 5.9 0 Calma 6 Oeste 0 -- -- 99
2020-01-17 07:00:00 5.4 0 Calma 6 Oeste 0 -- -- 98
2020-01-17 06:00:00 5 2 Oeste 6 Oeste 0 -- -- 98
2020-01-17 05:00:00 5 3 Oeste 7 Oeste 0 -- -- 97
2020-01-17 04:00:00 5.5 4 Oeste 8 Oeste 0 -- -- 97
2020-01-17 03:00:00 6 0 Calma 4 Sudoeste 0 -- -- 96
2020-01-17 02:00:00 6.9 0 Calma 4 Oeste 0 -- -- 94
2020-01-17 01:00:00 8.2 0 Calma 10 Norte 0 -- -- 94
2020-01-17 00:00:00 9.2 3 Este 18 Este 0 -- -- 90
2020-01-16 23:00:00 9.6 5 Este 20 Sudeste 0.8 -- -- 91
2020-01-16 22:00:00 10.1 6 Sur 41 Sudoeste 1.4 -- -- 85
2020-01-16 21:00:00 10.6 8 Sudoeste 32 Oeste 1.2 -- -- 84
2020-01-16 20:00:00 11.9 8 Sudoeste 38 Oeste 0 -- -- 70
2020-01-16 19:00:00 12.3 13 Sudoeste 31 Sudoeste 0 -- -- 62
2020-01-16 18:00:00 12.1 7 Sudoeste 26 Oeste 0 -- -- 65
2020-01-16 17:00:00 12.3 13 Sudoeste 34 Oeste 0 -- -- 67
2020-01-16 16:00:00 12.4 11 Sudoeste 31 Sudoeste 0 -- -- 68
2020-01-16 15:00:00 11.8 11 Sudoeste 31 Sudoeste 0 -- -- 72
2020-01-16 14:00:00 11.4 10 Sudoeste 23 Oeste 0 -- -- 75
2020-01-16 13:00:00 11.2 12 Oeste 28 Oeste 0 -- -- 75
2020-01-16 12:00:00 10.8 12 Sur 29 Sudeste 0 -- -- 76
2020-01-16 11:00:00 10 8 Sudeste 25 Este 0 -- -- 86
2020-01-16 10:00:00 9.8 6 Sudeste 22 Sudeste 0 -- -- 91
2020-01-16 09:00:00 9.9 8 Sur 20 Sudeste 0.2 -- -- 92
2020-01-16 08:00:00 9.8 5 Nordeste 17 Sudeste 0.2 -- -- 96
2020-01-16 07:00:00 9.7 4 Sudeste 20 Este 1.2 -- -- 97
2020-01-16 06:00:00 9.7 2 Este 24 Este 0 -- -- 97
2020-01-16 05:00:00 9.6 3 Sudeste 9 Oeste 0.4 -- -- 98
2020-01-16 04:00:00 9.5 0 Calma 6 Noroeste 0.2 -- -- 98
2020-01-16 03:00:00 9.5 2 Nordeste 8 Nordeste 0.2 -- -- 97
2020-01-16 02:00:00 9.6 2 Norte 8 Nordeste 0 -- -- 98
2020-01-16 01:00:00 9.6 2 Nordeste 10 Este 0 -- -- 98
2020-01-16 00:00:00 9.4 3 Norte 9 Norte 0.2 -- -- 99
2020-01-15 23:00:00 9.2 0 Calma 8 Este 1 -- -- 99
2020-01-15 22:00:00 9 3 Norte 9 Nordeste 1.6 -- -- 99
2020-01-15 21:00:00 8.7 0 Calma 5 Oeste 0.2 -- -- 98
2020-01-15 20:00:00 8.7 0 Calma 5 Noroeste 0.6 -- -- 98
2020-01-15 19:00:00 8.8 0 Calma 4 Este 1 -- -- 98
2020-01-15 18:00:00 8.9 0 Calma 4 Oeste 0.8 -- -- 97
2020-01-15 17:00:00 9.1 0 Calma 4 Sudeste 0.2 -- -- 97
2020-01-15 16:00:00 8.9 4 Nordeste 5 Norte 0.2 -- -- 96
2020-01-15 15:00:00 8.7 0 Calma 6 Noroeste 0.2 -- -- 96
2020-01-15 14:00:00 8.7 3 Nordeste 8 Nordeste 0.2 -- -- 97
2020-01-15 13:00:00 8.4 3 Sur 8 Sudeste 0.4 -- -- 97
2020-01-15 12:00:00 8.2 0 Calma 8 Noroeste 2.6 -- -- 97
2020-01-15 11:00:00 7.8 2 Norte 6 Sudeste 1.8 -- -- 98
2020-01-15 10:00:00 7.1 4 Noroeste 9 Norte 1.4 -- -- 97
2020-01-15 09:00:00 7.1 7 Noroeste 15 Oeste 1 -- -- 96
2020-01-15 08:00:00 7.1 3 Este 20 Oeste 0.8 -- -- 95
2020-01-15 07:00:00 7 3 Nordeste 11 Oeste 1.2 -- -- 95
2020-01-15 06:00:00 7.9 0 Calma 18 Sudoeste 0.4 -- -- 89
2020-01-15 05:00:00 8.4 12 Sudeste 28 Sur 0.4 -- -- 87
2020-01-15 04:00:00 8.9 6 Sur 30 Sudoeste 0 -- -- 85
2020-01-15 03:00:00 9.1 14 Sur 29 Sur 0 -- -- 85
2020-01-15 02:00:00 8.5 7 Sudeste 24 Oeste 0 -- -- 91
2020-01-15 01:00:00 8.1 6 Sur 19 Oeste 0.2 -- -- 94
2020-01-15 00:00:00 7 5 Este 12 Este 1.2 -- -- 99
2020-01-14 23:00:00 6.4 3 Norte 8 Nordeste 2 -- -- 98
2020-01-14 22:00:00 6.2 2 Este 7 Este 2.8 -- -- 98
2020-01-14 21:00:00 6 2 Este 5 Este 1.6 -- -- 97
2020-01-14 20:00:00 5.9 3 Nordeste 6 Sudeste 1.4 -- -- 97
2020-01-14 19:00:00 5.9 0 Calma 4 Nordeste 0.4 -- -- 94
2020-01-14 18:00:00 6.3 0 Calma 5 Este 0 -- -- 91
2020-01-14 17:00:00 6.7 0 Calma 4 Este 0 -- -- 88
2020-01-14 16:00:00 6.5 0 Calma 5 Oeste 0 -- -- 88
2020-01-14 15:00:00 6 3 Oeste 9 Este 0 -- -- 89
2020-01-14 14:00:00 5.5 2 Nordeste 4 Sudeste 0 -- -- 92
2020-01-14 13:00:00 5 0 Calma 5 Noroeste 0 -- -- 91
2020-01-14 12:00:00 4.2 3 Oeste 6 Sudeste 0 -- -- 94
2020-01-14 11:00:00 3.2 3 Este 7 Este 0 -- -- 96
2020-01-14 10:00:00 2.6 0 Calma 5 Oeste 0 -- -- 97
2020-01-14 09:00:00 1.6 0 Calma 4 Norte 0 -- -- 97
2020-01-14 08:00:00 1 2 Noroeste 5 Oeste 0 -- -- 98
2020-01-14 07:00:00 0.4 0 Calma 4 Norte 0 -- -- 98
2020-01-14 06:00:00 -0.1 0 Calma 3 Este 0 -- -- 98
2020-01-14 05:00:00 -0.8 0 Calma 3 Norte 0 -- -- 98
2020-01-14 04:00:00 -1.8 0 Calma 4 Norte 0 -- -- 97
2020-01-14 03:00:00 -2.4 0 Calma 4 Noroeste 0 -- -- 96
2020-01-14 02:00:00 -2.3 0 Calma 4 Norte 0 -- -- 95
2020-01-14 01:00:00 -1.7 0 Calma 5 Norte 0 -- -- 95
2020-01-14 00:00:00 -1.6 0 Calma 4 Norte 0 -- -- 94
2020-01-13 23:00:00 -0.9 0 Calma 5 Este 0 -- -- 94
2020-01-13 22:00:00 -0.1 0 Calma 6 Norte 0 -- -- 92
2020-01-13 21:00:00 0.8 2 Norte 4 Noroeste 0 -- -- 90
2020-01-13 20:00:00 2.3 0 Calma 7 Nordeste 0 -- -- 86
2020-01-13 19:00:00 4.7 3 Norte 12 Nordeste 0 -- -- 80
2020-01-13 18:00:00 7.9 3 Este 11 Sur 0 -- -- 68
2020-01-13 17:00:00 10.3 4 Sudeste 15 Este 0 -- -- 60
2020-01-13 16:00:00 10.2 11 Este 19 Este 0 -- -- 59
2020-01-13 15:00:00 10.3 14 Este 21 Este 0 -- -- 59
2020-01-13 14:00:00 9.7 8 Sudeste 12 Este 0 -- -- 62
2020-01-13 13:00:00 8 4 Sudeste 8 Sudeste 0 -- -- 74
2020-01-13 12:00:00 3.5 2 Sudeste 5 Este 0 -- -- 93
2020-01-13 11:00:00 0.2 0 Calma 4 Este 0 -- -- 98
2020-01-13 10:00:00 -2.4 0 Calma 2 Sudeste 0 -- -- 97
2020-01-13 09:00:00 -3.2 0 Calma 4 Norte 0 -- -- 96
2020-01-13 08:00:00 -3.3 0 Calma 2 Norte 0 -- -- 96
2020-01-13 07:00:00 -3.3 0 Calma 3 Este 0 -- -- 96
2020-01-13 06:00:00 -2.8 0 Calma 2 Noroeste 0 -- -- 96
2020-01-13 05:00:00 -3.1 0 Calma 3 Sudeste 0 -- -- 96
2020-01-13 04:00:00 -2.9 0 Calma 3 Norte 0 -- -- 95
2020-01-13 03:00:00 -2.5 0 Calma 3 Norte 0 -- -- 95
2020-01-13 02:00:00 -1.9 0 Calma 3 Noroeste 0 -- -- 95
2020-01-13 01:00:00 -1.6 0 Calma 2 Noroeste 0 -- -- 94
2020-01-13 00:00:00 -1.2 0 Calma 4 Noroeste 0 -- -- 93
2020-01-12 23:00:00 -0.7 2 Noroeste 4 Noroeste 0 -- -- 93
2020-01-12 22:00:00 0.3 3 Noroeste 5 Noroeste 0 -- -- 92
2020-01-12 21:00:00 1.1 2 Noroeste 4 Oeste 0 -- -- 90
2020-01-12 20:00:00 2.5 0 Calma 5 Noroeste 0 -- -- 84
2020-01-12 19:00:00 4.9 2 Oeste 6 Oeste 0 -- -- 80
2020-01-12 18:00:00 7.6 5 Oeste 12 Sudoeste 0 -- -- 70
2020-01-12 17:00:00 12.3 4 Sudoeste 9 Sudoeste 0 -- -- 55
2020-01-12 16:00:00 13.6 2 Sur 10 Sudeste 0 -- -- 53
2020-01-12 15:00:00 11.8 6 Este 15 Este 0 -- -- 52
2020-01-12 14:00:00 10.9 4 Sur 10 Este 0 -- -- 55
2020-01-12 13:00:00 7.7 2 Sur 5 Sudoeste 0 -- -- 67
2020-01-12 12:00:00 4.1 3 Sudeste 5 Sudeste 0 -- -- 88
2020-01-12 11:00:00 -0.5 0 Calma 4 Oeste 0 -- -- 98
2020-01-12 10:00:00 -4 0 Calma 3 Sudeste 0 -- -- 97
2020-01-12 09:00:00 -4.7 0 Calma 2 Noroeste 0 -- -- 95
2020-01-12 08:00:00 -4.4 0 Calma 2 Noroeste 0 -- -- 95
2020-01-12 07:00:00 -4.1 0 Calma 2 Noroeste 0 -- -- 95
2020-01-12 06:00:00 -3.6 0 Calma 3 Norte 0 -- -- 95
2020-01-12 05:00:00 -3.4 0 Calma 3 Norte 0 -- -- 95
2020-01-12 04:00:00 -3.1 0 Calma 3 Noroeste 0 -- -- 95
2020-01-12 03:00:00 -2.9 0 Calma 3 Norte 0 -- -- 95
2020-01-12 02:00:00 -2.3 0 Calma 3 Noroeste 0 -- -- 95
2020-01-12 01:00:00 -1.8 2 Noroeste 3 Norte 0 -- -- 94
2020-01-12 00:00:00 -1.5 0 Calma 3 Norte 0 -- -- 94
2020-01-11 23:00:00 -0.6 2 Norte 5 Norte 0 -- -- 92
2020-01-11 22:00:00 0.1 2 Noroeste 4 Norte 0 -- -- 92
2020-01-11 21:00:00 1.3 3 Noroeste 5 Sudoeste 0 -- -- 90
2020-01-11 20:00:00 2.5 3 Noroeste 5 Oeste 0 -- -- 86
2020-01-11 19:00:00 4.7 3 Noroeste 9 Oeste 0 -- -- 80
2020-01-11 18:00:00 7.4 4 Oeste 11 Oeste 0 -- -- 72
2020-01-11 17:00:00 11.2 0 Calma 13 Este 0 -- -- 58
2020-01-11 16:00:00 11.9 9 Este 17 Este 0 -- -- 49
2020-01-11 15:00:00 11.7 10 Este 19 Este 0 -- -- 47
2020-01-11 14:00:00 10.8 11 Este 19 Este 0 -- -- 50
2020-01-11 13:00:00 9.4 3 Sudoeste 9 Sudoeste 0 -- -- 61
2020-01-11 12:00:00 5.9 3 Sudoeste 5 Sudoeste 0 -- -- 76
2020-01-11 11:00:00 1.4 2 Oeste 4 Oeste 0 -- -- 94
2020-01-11 10:00:00 -1.5 0 Calma 3 Noroeste 0 -- -- 97
2020-01-11 09:00:00 -1.6 2 Norte 6 Noroeste 0 -- -- 95
2020-01-11 08:00:00 -1.5 2 Noroeste 5 Noroeste 0 -- -- 95
2020-01-11 07:00:00 -1.1 2 Noroeste 6 Noroeste 0 -- -- 94
2020-01-11 06:00:00 -0.7 2 Noroeste 9 Noroeste 0 -- -- 93
2020-01-11 05:00:00 -0.2 3 Norte 7 Oeste 0 -- -- 92
2020-01-11 04:00:00 0.4 2 Norte 9 Norte 0 -- -- 89
2020-01-11 03:00:00 2 3 Noroeste 10 Sudoeste 0 -- -- 85
2020-01-11 02:00:00 3.6 5 Noroeste 13 Norte 0 -- -- 80
2020-01-11 01:00:00 2.9 4 Noroeste 9 Sudoeste 0 -- -- 82
2020-01-11 00:00:00 3.4 4 Oeste 12 Oeste 0 -- -- 80
2020-01-10 23:00:00 5.4 3 Norte 13 Nordeste 0 -- -- 70
2020-01-10 22:00:00 6 4 Nordeste 20 Noroeste 0 -- -- 67
2020-01-10 21:00:00 5.8 3 Oeste 19 Este 0 -- -- 67
2020-01-10 20:00:00 4.9 4 Noroeste 19 Norte 0 -- -- 72
2020-01-10 19:00:00 6.2 3 Este 25 Nordeste 0 -- -- 66
2020-01-10 18:00:00 8.1 4 Este 20 Este 0 -- -- 58
2020-01-10 17:00:00 11.5 12 Sudeste 21 Este 0 -- -- 43
2020-01-10 16:00:00 12.5 6 Nordeste 21 Sudeste 0 -- -- 39
2020-01-10 15:00:00 11.8 12 Sudeste 24 Sudeste 0 -- -- 42
2020-01-10 14:00:00 11.4 7 Sudeste 30 Este 0 -- -- 50
2020-01-10 13:00:00 10.9 8 Sudeste 18 Sudeste 0 -- -- 53
2020-01-10 12:00:00 8.9 4 Sudeste 16 Este 0 -- -- 61
2020-01-10 11:00:00 4.5 3 Oeste 6 Sudoeste 0 -- -- 82
2020-01-10 10:00:00 1.1 2 Noroeste 8 Noroeste 0 -- -- 93
2020-01-10 09:00:00 0.7 2 Norte 10 Norte 0 -- -- 89
2020-01-10 08:00:00 1.6 3 Nordeste 8 Norte 0 -- -- 87
2020-01-10 07:00:00 2.8 3 Nordeste 11 Oeste 0 -- -- 82
2020-01-10 06:00:00 5.4 3 Oeste 25 Oeste 0 -- -- 73
2020-01-10 05:00:00 6.2 19 Sudoeste 43 Sudoeste 0 -- -- 70
2020-01-10 04:00:00 6.6 18 Oeste 32 Sudoeste 0 -- -- 66
2020-01-10 03:00:00 6.7 13 Oeste 28 Oeste 0 -- -- 67
2020-01-10 02:00:00 7.4 14 Oeste 25 Oeste 0 -- -- 64
2020-01-10 01:00:00 8.5 7 Oeste 26 Oeste 0 -- -- 66
2020-01-10 00:00:00 8.9 10 Oeste 20 Oeste 0 -- -- 73
2020-01-09 23:00:00 9.3 7 Oeste 23 Oeste 0 -- -- 71
2020-01-09 22:00:00 10.2 8 Oeste 20 Noroeste 0 -- -- 69
2020-01-09 21:00:00 11.4 8 Oeste 19 Sudoeste 0 -- -- 70
2020-01-09 20:00:00 12 12 Oeste 25 Sudoeste 0 -- -- 77
2020-01-09 19:00:00 11.7 4 Norte 10 Norte 0 -- -- 74
2020-01-09 18:00:00 12.7 5 Sudeste 13 Este 0 -- -- 70
2020-01-09 17:00:00 14.5 5 Este 12 Este 0 -- -- 66
2020-01-09 16:00:00 16.8 3 Sudoeste 19 Noroeste 0 -- -- 61
2020-01-09 15:00:00 15.6 12 Noroeste 32 Oeste 0 -- -- 64
2020-01-09 14:00:00 14.4 15 Noroeste 31 Noroeste 0 -- -- 69
2020-01-09 13:00:00 10.2 3 Sudeste 7 Este 0 -- -- 69
2020-01-09 12:00:00 6.3 0 Calma 5 Oeste 0 -- -- 90
2020-01-09 11:00:00 2.8 2 Oeste 4 Oeste 0 -- -- 99
2020-01-09 10:00:00 -0.3 0 Calma 4 Este 0 -- -- 99
2020-01-09 09:00:00 -1.3 2 Este 5 Norte 0 -- -- 97
2020-01-09 08:00:00 -1.1 0 Calma 5 Nordeste 0 -- -- 97
2020-01-09 07:00:00 -0.9 3 Noroeste 5 Norte 0 -- -- 98
2020-01-09 06:00:00 -1.2 0 Calma 3 Este 0 -- -- 97
2020-01-09 05:00:00 -0.9 0 Calma 3 Este 0 -- -- 96
2020-01-09 04:00:00 -0.5 0 Calma 3 Norte 0 -- -- 96
2020-01-09 03:00:00 -0.2 0 Calma 3 Norte 0 -- -- 96
2020-01-09 02:00:00 -0.2 0 Calma 3 Norte 0 -- -- 95
2020-01-09 01:00:00 0.2 0 Calma 4 Norte 0 -- -- 93
2020-01-09 00:00:00 0.8 3 Noroeste 4 Norte 0 -- -- 94
2020-01-08 23:00:00 1.5 0 Calma 4 Norte 0 -- -- 93
2020-01-08 22:00:00 1.9 0 Calma 3 Noroeste 0 -- -- 90
2020-01-08 21:00:00 3.2 2 Noroeste 5 Oeste 0 -- -- 88
2020-01-08 20:00:00 4.3 0 Calma 5 Oeste 0 -- -- 84
2020-01-08 19:00:00 6.3 3 Oeste 7 Oeste 0 -- -- 79
2020-01-08 18:00:00 9 5 Oeste 11 Sudoeste 0 -- -- 69
2020-01-08 17:00:00 13.5 7 Sudoeste 10 Sudoeste 0 -- -- 50
2020-01-08 16:00:00 16 2 Sudoeste 4 Sudoeste 0 -- -- 48
2020-01-08 15:00:00 15.3 3 Sudoeste 9 Este 0 -- -- 48
2020-01-08 14:00:00 13.1 4 Este 12 Este 0 -- -- 49
2020-01-08 13:00:00 10 2 Sudeste 4 Este 0 -- -- 59
2020-01-08 12:00:00 4.8 0 Calma 4 Noroeste 0 -- -- 81
2020-01-08 11:00:00 0.2 0 Calma 5 Oeste 0.2 -- -- 94
2020-01-08 10:00:00 -2.8 0 Calma 4 Noroeste 0 -- -- 96
2020-01-08 09:00:00 -3.1 3 Noroeste 5 Oeste 0 -- -- 96
2020-01-08 08:00:00 -3.5 0 Calma 2 Norte 0 -- -- 95
2020-01-08 07:00:00 -2.8 2 Noroeste 4 Norte 0 -- -- 96
2020-01-08 06:00:00 -2.3 2 Noroeste 5 Norte 0 -- -- 95
2020-01-08 05:00:00 -1.8 3 Noroeste 5 Norte 0 -- -- 95
2020-01-08 04:00:00 -1.7 2 Noroeste 6 Oeste 0 -- -- 94
2020-01-08 03:00:00 -1.7 2 Noroeste 4 Oeste 0 -- -- 96
2020-01-08 02:00:00 -1.9 0 Calma 4 Oeste 0 -- -- 94
2020-01-08 01:00:00 -1.4 0 Calma 3 Noroeste 0 -- -- 94
2020-01-08 00:00:00 -0.8 0 Calma 5 Noroeste 0 -- -- 92
2020-01-07 23:00:00 -0.2 2 Noroeste 5 Noroeste 0 -- -- 93
2020-01-07 22:00:00 0.9 3 Noroeste 5 Noroeste 0 -- -- 91
2020-01-07 21:00:00 2 2 Noroeste 8 Noroeste 0 -- -- 88
2020-01-07 20:00:00 3.8 3 Noroeste 6 Noroeste 0 -- -- 85
2020-01-07 19:00:00 5.9 3 Noroeste 6 Noroeste 0 -- -- 80
2020-01-07 18:00:00 9.1 5 Oeste 10 Sudoeste 0 -- -- 69
2020-01-07 17:00:00 13.8 7 Sudoeste 12 Sudoeste 0 -- -- 50
2020-01-07 16:00:00 16.3 0 Calma 4 Sudoeste 0 -- -- 52
2020-01-07 15:00:00 15.1 3 Sudoeste 6 Sudeste 0 -- -- 49
2020-01-07 14:00:00 13 4 Este 8 Este 0 -- -- 56
2020-01-07 13:00:00 10.3 0 Calma 4 Sur 0 -- -- 63
2020-01-07 12:00:00 5.3 0 Calma 5 Oeste 0 -- -- 79
2020-01-07 11:00:00 1.2 0 Calma 6 Oeste 0 -- -- 98
2020-01-07 10:00:00 -1.9 3 Noroeste 4 Noroeste 0 -- -- 98
2020-01-07 09:00:00 -2.4 2 Norte 4 Norte 0 -- -- 97
2020-01-07 08:00:00 -2 0 Calma 4 Noroeste 0 -- -- 97
2020-01-07 07:00:00 -2.1 2 Noroeste 3 Noroeste 0 -- -- 97
2020-01-07 06:00:00 -2.1 0 Calma 3 Noroeste 0 -- -- 96
2020-01-07 05:00:00 -2 0 Calma 5 Norte 0 -- -- 96
2020-01-07 04:00:00 -1.5 0 Calma 5 Noroeste 0 -- -- 96
2020-01-07 03:00:00 -1.4 2 Norte 5 Norte 0 -- -- 96
2020-01-07 02:00:00 -1.1 3 Noroeste 6 Oeste 0 -- -- 96
2020-01-07 01:00:00 -1.1 0 Calma 4 Noroeste 0 -- -- 94
2020-01-07 00:00:00 0 0 Calma 6 Oeste 0 -- -- 94
2020-01-06 23:00:00 0.2 4 Noroeste 7 Oeste 0 -- -- 93
2020-01-06 22:00:00 1.2 3 Noroeste 7 Oeste 0 -- -- 92
2020-01-06 21:00:00 2.1 3 Noroeste 6 Oeste 0 -- -- 90
2020-01-06 20:00:00 3.3 0 Calma 6 Noroeste 0 -- -- 87
2020-01-06 19:00:00 5.9 3 Noroeste 7 Oeste 0 -- -- 82
2020-01-06 18:00:00 8.8 5 Oeste 9 Oeste 0 -- -- 72
2020-01-06 17:00:00 13.1 0 Calma 5 Sudoeste 0 -- -- 62
2020-01-06 16:00:00 14.1 2 Sudeste 9 Este 0 -- -- 57
2020-01-06 15:00:00 14 2 Sur 5 Sur 0 -- -- 50
2020-01-06 14:00:00 11.6 0 Calma 5 Sudoeste 0 -- -- 56
2020-01-06 13:00:00 8 0 Calma 4 Oeste 0 -- -- 68
2020-01-06 12:00:00 3.9 0 Calma 4 Sudeste 0 -- -- 91
2020-01-06 11:00:00 0.2 0 Calma 4 Este 0.2 -- -- 99
2020-01-06 10:00:00 -2.6 2 Nordeste 5 Noroeste 0 -- -- 98